createdAt,value
2018-08-23T00:00:50.793Z,18.63
2018-08-23T00:03:25.793Z,16.47
2018-08-23T00:05:55.321Z,16.87
2018-08-23T00:08:25.701Z,16.87
2018-08-23T00:10:55.188Z,17.43
2018-08-23T00:13:24.389Z,18.03
2018-08-23T00:15:53.097Z,19.53
2018-08-23T00:18:22.045Z,21.37
2018-08-23T00:20:50.781Z,20.53
2018-08-23T00:23:20.980Z,20.57
2018-08-23T00:25:49.789Z,19.87
2018-08-23T00:28:19.959Z,21.93
2018-08-23T00:30:48.457Z,21.20
2018-08-23T00:33:17.770Z,21.87
2018-08-23T00:35:47.029Z,22.07
2018-08-23T00:38:16.302Z,22.10
2018-08-23T00:40:47.613Z,22.60
2018-08-23T00:43:16.087Z,21.53
2018-08-23T00:45:44.902Z,23.47
2018-08-23T00:48:13.961Z,21.13
2018-08-23T00:50:52.792Z,24.43
2018-08-23T00:53:23.473Z,23.37
2018-08-23T00:56:04.722Z,23.20
2018-08-23T00:58:34.610Z,23.50
2018-08-23T01:01:04.656Z,23.30
2018-08-23T01:03:35.757Z,23.83
2018-08-23T01:06:09.085Z,23.43
2018-08-23T01:08:37.509Z,23.10
2018-08-23T01:11:08.511Z,23.00
2018-08-23T01:13:37.433Z,24.13
2018-08-23T01:16:06.676Z,25.67
2018-08-23T01:18:38.085Z,25.73
2018-08-23T01:21:08.844Z,25.27
2018-08-23T01:23:38.037Z,25.67
2018-08-23T01:26:08.179Z,25.50
2018-08-23T01:28:37.339Z,25.67
2018-08-23T01:31:21.817Z,25.83
2018-08-23T01:33:54.084Z,25.97
2018-08-23T01:36:27.837Z,26.70
2018-08-23T01:38:57.518Z,26.83
2018-08-23T01:41:26.230Z,27.33
2018-08-23T01:43:55.482Z,27.00
2018-08-23T01:46:31.505Z,27.37
2018-08-23T01:49:02.351Z,26.83
2018-08-23T01:51:32.463Z,27.80
2018-08-23T01:54:01.045Z,27.93
2018-08-23T01:56:30.299Z,28.77
2018-08-23T01:58:58.946Z,28.33
2018-08-23T02:01:28.226Z,28.67
2018-08-23T02:03:57.216Z,28.33
2018-08-23T02:06:32.196Z,28.80
2018-08-23T02:09:01.893Z,28.30
2018-08-23T02:11:31.357Z,28.70
2018-08-23T02:14:00.534Z,28.63
2018-08-23T02:16:39.240Z,28.40
2018-08-23T02:19:08.400Z,28.43
2018-08-23T02:21:37.078Z,28.60
2018-08-23T02:24:07.469Z,30.00
2018-08-23T02:26:36.457Z,30.77
2018-08-23T02:29:05.959Z,27.77
2018-08-23T02:31:36.063Z,29.73
2018-08-23T02:34:04.576Z,28.43
2018-08-23T02:36:36.517Z,28.07
2018-08-23T02:39:09.631Z,28.17
2018-08-23T02:41:42.073Z,28.43
2018-08-23T02:44:12.134Z,28.10
2018-08-23T02:46:42.062Z,29.07
2018-08-23T02:49:13.234Z,28.93
2018-08-23T02:51:47.203Z,28.77
2018-08-23T02:54:16.497Z,28.40
2018-08-23T02:56:50.603Z,26.87
2018-08-23T02:59:19.658Z,27.93
2018-08-23T03:01:51.097Z,28.03
2018-08-23T03:04:26.277Z,27.57
2018-08-23T03:07:04.860Z,26.80
2018-08-23T03:09:36.533Z,27.67
2018-08-23T03:12:11.282Z,27.40
2018-08-23T03:14:41.216Z,28.40
2018-08-23T03:17:17.241Z,28.13
2018-08-23T03:20:10.101Z,27.83
2018-08-23T03:22:40.545Z,32.40
2018-08-23T03:25:12.010Z,27.37
2018-08-23T03:27:45.702Z,24.97
2018-08-23T03:30:17.027Z,24.97
2018-08-23T03:32:46.381Z,27.07
2018-08-23T03:35:15.777Z,26.27
2018-08-23T03:37:44.831Z,27.93
2018-08-23T03:40:15.289Z,27.40
2018-08-23T03:42:44.917Z,27.47
2018-08-23T03:45:19.793Z,29.83
2018-08-23T03:47:51.945Z,27.83
2018-08-23T03:50:21.917Z,28.73
2018-08-23T03:52:53.375Z,27.57
2018-08-23T03:55:24.697Z,27.17
2018-08-23T03:57:58.725Z,29.67
2018-08-23T04:00:33.245Z,28.73
2018-08-23T04:03:03.514Z,29.40
2018-08-23T04:05:32.709Z,32.63
2018-08-23T04:08:01.718Z,31.73
2018-08-23T04:10:31.201Z,31.07
2018-08-23T04:13:00.549Z,30.63
2018-08-23T04:15:30.524Z,32.17
2018-08-23T04:18:02.951Z,28.77
2018-08-23T04:20:31.406Z,28.00
2018-08-23T04:22:59.778Z,28.67
2018-08-23T04:25:28.169Z,30.00
2018-08-23T04:27:56.546Z,29.30
2018-08-23T04:30:24.925Z,29.83
2018-08-23T04:32:53.301Z,30.10
2018-08-23T04:35:24.803Z,29.03
2018-08-23T04:37:53.171Z,31.30
2018-08-23T04:40:21.544Z,31.03
2018-08-23T04:42:49.977Z,28.93
2018-08-23T04:45:23.417Z,29.13
2018-08-23T04:47:57.159Z,29.00
2018-08-23T04:50:26.114Z,28.27
2018-08-23T04:52:54.637Z,28.90
2018-08-23T04:55:23.411Z,29.07
2018-08-23T04:57:51.895Z,27.57
2018-08-23T05:00:20.321Z,29.53
2018-08-23T05:02:48.734Z,28.67
2018-08-23T05:05:17.210Z,29.13
2018-08-23T05:07:45.674Z,27.90
2018-08-23T05:10:14.258Z,26.53
2018-08-23T05:12:42.849Z,27.83
2018-08-23T05:15:11.361Z,30.97
2018-08-23T05:17:39.813Z,28.87
2018-08-23T05:20:08.598Z,29.40
2018-08-23T05:22:37.026Z,29.90
2018-08-23T05:25:14.261Z,28.93
2018-08-23T05:27:59.121Z,30.13
2018-08-23T05:30:28.700Z,30.60
2018-08-23T05:33:02.437Z,28.57
2018-08-23T05:35:31.522Z,30.03
2018-08-23T05:38:00.618Z,29.73
2018-08-23T05:40:33.596Z,33.10
2018-08-23T05:43:02.057Z,31.10
2018-08-23T05:45:35.865Z,31.40
2018-08-23T05:48:20.118Z,30.20
2018-08-23T05:50:48.571Z,31.33
2018-08-23T05:53:18.000Z,29.33
2018-08-23T05:55:48.982Z,29.47
2018-08-23T05:58:23.497Z,30.80
2018-08-23T06:00:52.108Z,30.30
2018-08-23T06:03:26.954Z,30.30
2018-08-23T06:05:56.359Z,28.97
2018-08-23T06:08:24.885Z,27.53
2018-08-23T06:10:58.530Z,27.67
2018-08-23T06:13:26.942Z,26.97
2018-08-23T06:15:56.622Z,28.17
2018-08-23T06:18:25.920Z,26.73
2018-08-23T06:20:54.357Z,26.87
2018-08-23T06:23:27.245Z,27.73
2018-08-23T06:25:55.650Z,26.33
2018-08-23T06:28:26.886Z,28.97
2018-08-23T06:30:56.209Z,28.83
2018-08-23T06:33:36.429Z,25.87
2018-08-23T06:36:04.981Z,31.07
2018-08-23T06:38:34.534Z,31.63
2018-08-23T06:41:04.276Z,33.27
2018-08-23T06:43:33.421Z,29.43
2018-08-23T06:46:02.575Z,33.67
2018-08-23T06:48:31.330Z,32.20
2018-08-23T06:51:00.933Z,31.83
2018-08-23T06:53:39.409Z,33.90
2018-08-23T06:56:07.957Z,33.33
2018-08-23T06:58:36.462Z,33.90
2018-08-23T07:01:09.019Z,34.17
2018-08-23T07:03:51.013Z,33.63
2018-08-23T07:06:20.105Z,33.67
2018-08-23T07:08:48.533Z,35.63
2018-08-23T07:11:21.921Z,34.37
2018-08-23T07:13:56.370Z,35.57
2018-08-23T07:16:24.947Z,37.27
2018-08-23T07:18:53.445Z,36.13
2018-08-23T07:21:21.952Z,33.80
2018-08-23T07:23:50.318Z,34.63
2018-08-23T07:26:18.801Z,34.17
2018-08-23T07:28:47.265Z,36.97
2018-08-23T07:31:15.657Z,37.43
2018-08-23T07:33:46.124Z,36.60
2018-08-23T07:36:26.955Z,40.63
2018-08-23T07:38:55.580Z,39.17
2018-08-23T07:41:23.966Z,36.47
2018-08-23T07:43:52.429Z,38.57
2018-08-23T07:46:29.715Z,38.17
2018-08-23T07:48:58.409Z,38.50
2018-08-23T07:51:26.819Z,38.27
2018-08-23T07:53:57.649Z,33.83
2018-08-23T07:56:28.197Z,25.13
2018-08-23T07:58:57.663Z,23.97
2018-08-23T08:01:31.105Z,18.80
2018-08-23T08:04:00.295Z,20.40
2018-08-23T08:06:29.243Z,19.83
2018-08-23T08:08:59.197Z,20.97
2018-08-23T08:11:29.795Z,23.27
2018-08-23T08:14:13.323Z,24.37
2018-08-23T08:16:41.741Z,23.83
2018-08-23T08:19:10.156Z,23.57
2018-08-23T08:21:38.622Z,19.73
2018-08-23T08:24:06.991Z,22.50
2018-08-23T08:26:35.414Z,10.30
2018-08-23T08:29:03.777Z,13.57
2018-08-23T08:31:32.196Z,12.27
2018-08-23T08:34:00.808Z,12.07
2018-08-23T08:36:31.340Z,11.33
2018-08-23T08:39:00.332Z,10.40
2018-08-23T08:41:33.529Z,10.40
2018-08-23T08:44:02.101Z,12.00
2018-08-23T08:46:30.514Z,10.17
2018-08-23T08:48:58.922Z,9.07
2018-08-23T08:51:32.373Z,9.70
2018-08-23T08:54:03.148Z,8.60
2018-08-23T08:56:36.877Z,7.30
2018-08-23T08:59:05.310Z,6.27
2018-08-23T09:01:33.744Z,6.53
2018-08-23T09:04:02.163Z,6.80
2018-08-23T09:06:46.989Z,7.03
2018-08-23T09:09:40.967Z,6.03
2018-08-23T09:12:11.441Z,5.37
2018-08-23T09:14:40.799Z,5.00
2018-08-23T09:17:39.833Z,5.27
2018-08-23T09:20:10.321Z,5.23
2018-08-23T09:22:41.097Z,5.67
2018-08-23T09:25:12.220Z,5.20
2018-08-23T09:27:40.653Z,4.97
2018-08-23T09:30:14.433Z,4.77
2018-08-23T09:32:42.866Z,4.10
2018-08-23T09:35:11.718Z,4.20
2018-08-23T09:37:40.739Z,4.90
2018-08-23T09:40:09.340Z,4.77
2018-08-23T09:42:38.437Z,3.83
2018-08-23T09:45:13.673Z,4.40
2018-08-23T09:47:42.325Z,4.50
2018-08-23T09:50:10.794Z,4.10
2018-08-23T09:52:43.166Z,3.50
2018-08-23T09:55:12.874Z,3.87
2018-08-23T09:57:41.707Z,3.80
2018-08-23T10:00:12.742Z,3.30
2018-08-23T10:02:46.355Z,3.40
2018-08-23T10:05:20.178Z,3.10
2018-08-23T10:07:53.961Z,3.30
2018-08-23T10:10:27.737Z,3.30
2018-08-23T10:13:01.425Z,3.20
2018-08-23T10:15:34.972Z,3.63
2018-08-23T10:18:08.725Z,3.47
2018-08-23T10:20:45.388Z,3.13
2018-08-23T10:23:16.691Z,3.33
2018-08-23T10:25:46.325Z,3.33
2018-08-23T10:28:15.979Z,3.77
2018-08-23T10:30:44.687Z,3.50
2018-08-23T10:33:13.081Z,3.43
2018-08-23T10:35:46.738Z,3.33
2018-08-23T10:38:16.772Z,3.80
2018-08-23T10:40:46.221Z,3.50
2018-08-23T10:43:15.155Z,4.10
2018-08-23T10:45:43.843Z,4.50
2018-08-23T10:48:16.598Z,4.03
2018-08-23T10:50:45.947Z,4.37
2018-08-23T10:53:14.782Z,4.63
2018-08-23T10:55:43.766Z,4.23
2018-08-23T10:58:12.184Z,4.40
2018-08-23T11:00:40.627Z,3.67
2018-08-23T11:03:09.037Z,3.30
2018-08-23T11:05:37.526Z,3.70
2018-08-23T11:08:11.230Z,2.93
2018-08-23T11:10:44.922Z,3.57
2018-08-23T11:13:18.533Z,3.40
2018-08-23T11:15:46.947Z,3.00
2018-08-23T11:18:20.589Z,2.93
2018-08-23T11:20:50.361Z,2.90
2018-08-23T11:23:23.912Z,2.87
2018-08-23T11:25:52.389Z,2.70
2018-08-23T11:28:21.437Z,2.77
2018-08-23T11:30:50.482Z,2.60
2018-08-23T11:33:18.925Z,2.62
2018-08-23T11:35:47.378Z,2.77
2018-08-23T11:38:15.843Z,2.73
2018-08-23T11:40:44.254Z,2.98
2018-08-23T11:43:12.678Z,3.17
2018-08-23T11:45:41.109Z,3.02
2018-08-23T11:48:09.586Z,2.60
2018-08-23T11:50:38.843Z,2.40
2018-08-23T11:53:07.310Z,2.45
2018-08-23T12:00:22.610Z,2.90
2018-08-23T12:02:58.662Z,2.77
2018-08-23T12:05:27.694Z,3.00
2018-08-23T12:07:57.440Z,2.67
2018-08-23T12:10:25.898Z,2.80
2018-08-23T12:13:05.513Z,2.92
2018-08-23T12:15:34.037Z,2.80
2018-08-23T12:18:02.557Z,3.07
2018-08-23T12:20:30.970Z,3.43
2018-08-23T12:22:59.380Z,3.13
2018-08-23T12:25:27.828Z,3.00
2018-08-23T12:28:00.081Z,2.70
2018-08-23T12:30:28.650Z,3.37
2018-08-23T12:32:57.082Z,3.00
2018-08-23T12:35:26.207Z,3.47
2018-08-23T12:38:01.594Z,3.13
2018-08-23T12:40:36.833Z,2.12
2018-08-23T12:43:08.660Z,3.03
2018-08-23T12:45:39.933Z,3.07
2018-08-23T12:48:18.273Z,3.10
2018-08-23T12:50:46.675Z,3.10
2018-08-23T12:53:15.211Z,3.20
2018-08-23T12:55:43.577Z,3.60
2018-08-23T12:58:13.125Z,3.10
2018-08-23T13:00:42.697Z,3.17
2018-08-23T13:03:11.154Z,3.05
2018-08-23T13:05:39.900Z,3.22
2018-08-23T13:08:08.345Z,3.25
2018-08-23T13:10:37.192Z,3.10
2018-08-23T13:13:05.741Z,3.10
2018-08-23T13:15:34.147Z,3.20
2018-08-23T13:18:03.078Z,3.12
2018-08-23T13:20:31.459Z,3.62
2018-08-23T13:22:59.836Z,3.20
2018-08-23T13:25:29.930Z,3.22
2018-08-23T13:27:58.333Z,3.55
2018-08-23T13:30:26.716Z,3.20
2018-08-23T13:32:55.195Z,3.58
2018-08-23T13:35:24.763Z,3.17
2018-08-23T13:37:53.182Z,3.20
2018-08-23T13:40:21.588Z,3.60
2018-08-23T13:42:53.293Z,3.10
2018-08-23T13:45:21.750Z,3.70
2018-08-23T13:47:50.157Z,3.47
2018-08-23T13:50:18.593Z,3.15
2018-08-23T13:52:47.019Z,3.95
2018-08-23T13:55:15.444Z,4.50
2018-08-23T13:57:43.946Z,4.97
2018-08-23T14:00:43.210Z,5.10
2018-08-23T14:03:12.189Z,4.83
2018-08-23T14:05:41.537Z,4.90
2018-08-23T14:08:10.401Z,5.00
2018-08-23T14:13:32.484Z,5.60
2018-08-23T14:16:04.414Z,5.70
2018-08-23T14:18:34.190Z,5.97
2018-08-23T14:21:02.702Z,6.60
2018-08-23T14:23:31.105Z,6.15
2018-08-23T14:25:59.570Z,4.95
2018-08-23T14:28:27.976Z,6.30
2018-08-23T14:30:56.418Z,5.75
2018-08-23T14:33:24.825Z,5.12
2018-08-23T14:35:53.349Z,5.87
2018-08-23T14:38:22.042Z,6.00
2018-08-23T14:40:50.502Z,5.58
2018-08-23T14:43:18.917Z,7.33
2018-08-23T14:45:47.377Z,7.72
2018-08-23T14:48:17.510Z,8.10
2018-08-23T14:50:50.148Z,8.03
2018-08-23T14:53:23.984Z,7.42
2018-08-23T14:55:57.515Z,7.70
2018-08-23T14:58:26.056Z,7.33
2018-08-23T15:00:54.538Z,6.95
2018-08-23T15:03:30.954Z,6.67
2018-08-23T15:05:59.441Z,6.55
2018-08-23T15:08:27.898Z,6.92
2018-08-23T15:10:56.727Z,6.20
2018-08-23T15:13:25.168Z,5.35
2018-08-23T15:15:54.127Z,5.47
2018-08-23T15:18:23.120Z,5.90
2018-08-23T15:20:52.011Z,5.95
2018-08-23T15:23:20.436Z,6.12
2018-08-23T15:25:48.894Z,6.62
2018-08-23T15:28:17.347Z,6.50
2018-08-23T15:30:45.793Z,6.10
2018-08-23T15:33:14.215Z,5.95
2018-08-23T15:35:42.717Z,6.03
2018-08-23T15:38:11.194Z,6.25
2018-08-23T15:40:39.635Z,7.42
2018-08-23T15:43:08.050Z,7.63
2018-08-23T15:45:36.518Z,7.97
2018-08-23T15:48:05.304Z,7.40
2018-08-23T15:50:33.697Z,7.67
2018-08-23T15:53:02.086Z,8.47
2018-08-23T15:55:30.556Z,7.40
2018-08-23T15:57:58.906Z,7.22
2018-08-23T16:00:31.427Z,8.30
2018-08-23T16:02:59.799Z,8.38
2018-08-23T16:05:28.194Z,8.98
2018-08-23T16:07:56.574Z,7.47
2018-08-23T16:10:25.049Z,8.28
2018-08-23T16:12:53.362Z,8.65
2018-08-23T16:15:23.409Z,8.40
2018-08-23T16:17:57.278Z,8.05
2018-08-23T16:20:30.947Z,8.30
2018-08-23T16:22:59.321Z,7.85
2018-08-23T16:25:27.755Z,7.63
2018-08-23T16:27:56.097Z,7.87
2018-08-23T16:30:24.529Z,7.17
2018-08-23T16:32:52.917Z,7.80
2018-08-23T16:35:21.303Z,7.50
2018-08-23T16:37:49.712Z,7.67
2018-08-23T16:40:23.377Z,7.43
2018-08-23T16:42:51.805Z,7.63
2018-08-23T16:45:20.190Z,7.83
2018-08-23T16:47:48.623Z,8.37
2018-08-23T16:50:16.993Z,7.00
2018-08-23T16:52:45.441Z,7.33
2018-08-23T16:55:13.814Z,6.87
2018-08-23T16:57:42.216Z,8.00
2018-08-23T17:00:10.626Z,8.27
2018-08-23T17:02:39.226Z,9.20
2018-08-23T17:05:07.597Z,8.93
2018-08-23T17:07:36.017Z,8.00
2018-08-23T17:10:04.522Z,8.33
2018-08-23T17:12:32.886Z,8.73
2018-08-23T17:15:01.614Z,8.50
2018-08-23T17:17:31.941Z,7.67
2018-08-23T17:20:00.319Z,7.23
2018-08-23T17:22:29.453Z,8.13
2018-08-23T17:24:57.986Z,7.83
2018-08-23T17:27:26.653Z,7.73
2018-08-23T17:29:55.047Z,6.83
2018-08-23T17:32:23.913Z,6.77
2018-08-23T17:34:53.779Z,6.60
2018-08-23T17:37:22.529Z,6.73
2018-08-23T17:39:51.836Z,6.70
2018-08-23T17:42:25.309Z,6.03
2018-08-23T17:44:53.878Z,6.70
2018-08-23T17:47:28.918Z,7.13
2018-08-23T17:49:57.829Z,6.53
2018-08-23T17:52:27.291Z,6.60
2018-08-23T17:54:56.024Z,6.47
2018-08-23T17:57:25.103Z,6.10
2018-08-23T17:59:56.184Z,5.83
2018-08-23T18:02:24.934Z,5.90
2018-08-23T18:04:54.118Z,6.17
2018-08-23T18:07:23.134Z,6.53
2018-08-23T18:09:54.111Z,6.20
2018-08-23T18:12:23.621Z,5.67
2018-08-23T18:14:52.539Z,5.50
2018-08-23T18:17:21.818Z,5.30
2018-08-23T18:19:50.622Z,5.27
2018-08-23T18:22:24.620Z,6.43
2018-08-23T18:24:53.378Z,5.50
2018-08-23T18:27:23.195Z,5.80
2018-08-23T18:29:56.660Z,5.70
2018-08-23T18:32:26.376Z,5.70
2018-08-23T18:34:55.905Z,5.80
2018-08-23T18:37:24.739Z,5.53
2018-08-23T18:39:57.068Z,5.27
2018-08-23T18:42:25.914Z,5.57
2018-08-23T18:44:55.997Z,5.40
2018-08-23T18:47:25.850Z,5.10
2018-08-23T18:49:55.989Z,5.07
2018-08-23T18:52:25.126Z,5.17
2018-08-23T18:54:53.965Z,5.10
2018-08-23T18:57:23.766Z,5.27
2018-08-23T18:59:53.703Z,5.67
2018-08-23T19:02:24.840Z,5.60
2018-08-23T19:04:54.453Z,5.73
2018-08-23T19:07:28.882Z,5.20
2018-08-23T19:10:00.942Z,5.57
2018-08-23T19:12:30.929Z,5.20
2018-08-23T19:15:01.323Z,5.40
2018-08-23T19:17:36.396Z,5.00
2018-08-23T19:20:06.697Z,5.60
2018-08-23T19:22:35.725Z,5.50
2018-08-23T19:25:04.962Z,5.23
2018-08-23T19:27:34.063Z,5.23
2018-08-23T19:30:03.288Z,5.30
2018-08-23T19:32:32.085Z,4.80
2018-08-23T19:35:01.140Z,5.73
2018-08-23T19:37:29.973Z,5.03
2018-08-23T19:39:58.574Z,5.07
2018-08-23T19:42:27.989Z,4.90
2018-08-23T19:45:01.358Z,4.80
2018-08-23T19:47:35.101Z,4.97
2018-08-23T19:50:08.062Z,4.93
2018-08-23T19:52:37.644Z,5.13
2018-08-23T19:55:07.634Z,5.67
2018-08-23T19:57:50.295Z,5.30
2018-08-23T20:00:20.366Z,4.63
2018-08-23T20:02:49.617Z,4.90
2018-08-23T20:05:24.067Z,5.20
2018-08-23T20:07:52.632Z,4.87
2018-08-23T20:10:21.978Z,4.90
2018-08-23T20:12:51.154Z,4.47
2018-08-23T20:15:24.789Z,4.77
2018-08-23T20:17:57.126Z,4.40
2018-08-23T20:20:26.590Z,4.73
2018-08-23T20:22:56.423Z,5.40
2018-08-23T20:25:27.407Z,4.70
2018-08-23T20:27:56.108Z,4.93
2018-08-23T20:30:25.086Z,4.93
2018-08-23T20:32:54.376Z,5.10
2018-08-23T20:35:23.838Z,5.20
2018-08-23T20:37:52.518Z,5.20
2018-08-23T20:40:22.686Z,5.13
2018-08-23T20:42:52.198Z,4.70
2018-08-23T20:45:20.766Z,4.70
2018-08-23T20:47:50.563Z,4.70
2018-08-23T20:50:19.475Z,4.53
2018-08-23T20:52:48.502Z,4.83
2018-08-23T20:55:17.637Z,4.47
2018-08-23T20:57:46.366Z,4.93
2018-08-23T21:00:21.681Z,5.10
2018-08-23T21:02:50.565Z,5.23
2018-08-23T21:05:20.750Z,4.53
2018-08-23T21:07:49.956Z,5.03
2018-08-23T21:10:19.914Z,5.73
2018-08-23T21:12:50.765Z,5.73
2018-08-23T21:15:20.550Z,5.37
2018-08-23T21:17:49.725Z,5.80
2018-08-23T21:20:22.624Z,5.40
2018-08-23T21:22:51.902Z,4.80
2018-08-23T21:25:20.499Z,5.27
2018-08-23T21:27:49.943Z,5.50
2018-08-23T21:30:20.003Z,5.43
2018-08-23T21:32:49.210Z,5.13
2018-08-23T21:35:18.069Z,5.43
2018-08-23T21:37:47.718Z,5.23
2018-08-23T21:40:17.350Z,4.80
2018-08-23T21:42:45.922Z,5.10
2018-08-23T21:45:15.565Z,5.87
2018-08-23T21:47:45.229Z,5.60
2018-08-23T21:50:15.198Z,5.80
2018-08-23T21:52:45.057Z,4.87
2018-08-23T21:55:14.349Z,5.00
2018-08-23T21:57:43.413Z,5.30
2018-08-23T22:00:12.725Z,4.90
2018-08-23T22:02:43.903Z,5.10
2018-08-23T22:05:13.301Z,4.77
2018-08-23T22:07:42.556Z,4.50
2018-08-23T22:10:18.785Z,5.20
2018-08-23T22:12:52.066Z,5.03
2018-08-23T22:15:21.309Z,5.40
2018-08-23T22:17:51.086Z,5.20
2018-08-23T22:20:20.840Z,5.20
2018-08-23T22:22:49.985Z,5.00
2018-08-23T22:25:19.217Z,4.77
2018-08-23T22:27:47.654Z,4.83
2018-08-23T22:30:16.352Z,5.20
2018-08-23T22:32:45.385Z,5.10
2018-08-23T22:35:32.625Z,4.70
2018-08-23T22:38:02.532Z,4.77
2018-08-23T22:40:31.548Z,4.90
2018-08-23T22:43:01.910Z,4.67
2018-08-23T22:45:35.744Z,4.70
2018-08-23T22:48:05.809Z,4.37
2018-08-23T22:50:34.490Z,4.57
2018-08-23T22:53:03.139Z,4.97
2018-08-23T22:55:32.389Z,4.40
2018-08-23T22:58:01.285Z,4.17
2018-08-23T23:00:36.058Z,4.53
2018-08-23T23:03:09.969Z,4.50
2018-08-23T23:05:43.049Z,4.60
2018-08-23T23:08:12.353Z,4.77
2018-08-23T23:10:41.329Z,4.73
2018-08-23T23:13:10.086Z,4.33
2018-08-23T23:15:39.605Z,4.57
2018-08-23T23:18:08.777Z,4.17
2018-08-23T23:20:37.296Z,4.60
2018-08-23T23:23:05.989Z,4.53
2018-08-23T23:25:35.582Z,4.00
2018-08-23T23:28:04.428Z,3.90
2018-08-23T23:30:33.836Z,3.50
2018-08-23T23:33:02.460Z,3.70
2018-08-23T23:35:31.640Z,3.73
2018-08-23T23:38:00.886Z,3.40
2018-08-23T23:40:30.197Z,3.50
2018-08-23T23:42:58.830Z,3.63
2018-08-23T23:45:28.565Z,3.50
2018-08-23T23:47:58.202Z,2.80
2018-08-23T23:50:26.857Z,2.90
2018-08-23T23:52:55.954Z,3.30
2018-08-23T23:55:25.289Z,2.83
2018-08-23T23:57:53.998Z,3.40
